createdAt,value
2022-07-28T00:03:01.219Z,100817.38
2022-07-28T00:08:04.397Z,100796.50
2022-07-28T00:13:07.296Z,100802.78
2022-07-28T00:18:10.451Z,100796.94
2022-07-28T00:23:12.924Z,100815.53
2022-07-28T00:28:15.823Z,100809.63
2022-07-28T00:33:19.287Z,100818.25
2022-07-28T00:38:21.863Z,100806.22
2022-07-28T00:43:25.974Z,100809.06
2022-07-28T00:48:28.831Z,100807.34
2022-07-28T00:53:31.549Z,100804.28
2022-07-28T00:58:36.729Z,100804.06
2022-07-28T01:03:45.324Z,100805.22
2022-07-28T01:09:16.518Z,100797.06
2022-07-28T01:14:33.156Z,100788.09
2022-07-28T01:19:51.738Z,100776.03
2022-07-28T01:25:20.313Z,100808.41
2022-07-28T01:30:23.177Z,100804.63
2022-07-28T01:35:34.148Z,100793.88
2022-07-28T01:40:37.932Z,100804.75
2022-07-28T01:45:41.311Z,100802.06
2022-07-28T01:50:45.368Z,100803.59
2022-07-28T01:55:48.548Z,100800.00
2022-07-28T02:00:52.208Z,100795.84
2022-07-28T02:05:56.851Z,100806.47
2022-07-28T02:11:18.959Z,100801.88
2022-07-28T02:16:23.712Z,100810.44
2022-07-28T02:21:28.001Z,100804.16
2022-07-28T02:26:38.284Z,100798.72
2022-07-28T02:32:27.299Z,100796.00
2022-07-28T02:37:36.292Z,100794.94
2022-07-28T02:42:41.913Z,100804.84
2022-07-28T02:47:51.584Z,100800.66
2022-07-28T02:52:57.382Z,100796.13
2022-07-28T02:58:00.388Z,100804.00
2022-07-28T03:03:05.021Z,100803.16
2022-07-28T03:08:07.784Z,100814.16
2022-07-28T03:13:10.592Z,100810.63
2022-07-28T03:18:13.538Z,100814.84
2022-07-28T03:23:16.978Z,100819.88
2022-07-28T03:28:21.302Z,100816.41
2022-07-28T03:33:24.534Z,100818.06
2022-07-28T03:38:43.972Z,100826.41
2022-07-28T03:43:47.652Z,100826.44
2022-07-28T03:48:50.397Z,100830.69
2022-07-28T03:53:52.804Z,100832.94
2022-07-28T03:58:55.679Z,100839.94
2022-07-28T04:03:58.922Z,100845.38
2022-07-28T04:09:01.660Z,100844.28
2022-07-28T04:14:04.281Z,100845.56
2022-07-28T04:19:06.777Z,100848.44
2022-07-28T04:24:11.217Z,100851.19
2022-07-28T04:29:13.820Z,100851.41
2022-07-28T04:34:26.347Z,100854.50
2022-07-28T04:39:29.110Z,100853.81
2022-07-28T04:44:31.945Z,100854.88
2022-07-28T04:49:35.686Z,100854.84
2022-07-28T04:54:39.004Z,100868.69
2022-07-28T04:59:41.664Z,100870.31
2022-07-28T05:04:45.888Z,100877.69
2022-07-28T05:09:48.831Z,100872.66
2022-07-28T05:14:51.742Z,100854.03
2022-07-28T05:19:54.575Z,100865.63
2022-07-28T05:25:00.892Z,100874.53
2022-07-28T05:30:05.562Z,100859.19
2022-07-28T05:35:09.146Z,100881.47
2022-07-28T05:40:14.371Z,100893.84
2022-07-28T05:45:17.743Z,100890.28
2022-07-28T05:50:25.418Z,100892.16
2022-07-28T05:55:28.477Z,100899.81
2022-07-28T06:00:33.754Z,100898.47
2022-07-28T06:06:14.117Z,100897.63
2022-07-28T06:11:11.881Z,100910.38
2022-07-28T06:16:23.170Z,100909.59
2022-07-28T06:21:28.199Z,100922.41
2022-07-28T06:26:31.734Z,100917.66
2022-07-28T06:31:35.500Z,100935.44
2022-07-28T06:36:42.259Z,100930.25
2022-07-28T06:41:45.334Z,100938.09
2022-07-28T06:46:50.562Z,100930.38
2022-07-28T06:51:53.663Z,100937.75
2022-07-28T06:56:57.338Z,100941.00
2022-07-28T07:02:02.534Z,100935.69
2022-07-28T07:07:11.938Z,100920.28
2022-07-28T07:12:19.821Z,100938.78
2022-07-28T07:17:23.155Z,100934.22
2022-07-28T07:22:26.212Z,100943.34
2022-07-28T07:27:29.379Z,100937.13
2022-07-28T07:32:32.427Z,100949.84
2022-07-28T07:37:35.767Z,100947.47
2022-07-28T07:42:39.404Z,100948.78
2022-07-28T07:47:42.616Z,100955.34
2022-07-28T07:52:45.927Z,100950.13
2022-07-28T07:57:49.398Z,100965.06
2022-07-28T08:02:52.393Z,100961.88
2022-07-28T08:07:54.846Z,100972.44
2022-07-28T08:12:57.526Z,100962.84
2022-07-28T08:18:00.940Z,100962.19
2022-07-28T08:23:03.834Z,100952.88
2022-07-28T08:28:06.619Z,100971.22
2022-07-28T08:33:09.797Z,100966.38
2022-07-28T08:38:12.904Z,100972.09
2022-07-28T08:43:36.211Z,100974.84
2022-07-28T08:48:39.778Z,100971.13
2022-07-28T08:53:43.153Z,100982.56
2022-07-28T08:58:45.719Z,100981.44
2022-07-28T09:03:50.176Z,100967.56
2022-07-28T09:08:53.477Z,100977.91
2022-07-28T09:13:56.350Z,100991.34
2022-07-28T09:18:59.019Z,100990.53
2022-07-28T09:24:03.799Z,100987.03
2022-07-28T09:29:08.811Z,100983.09
2022-07-28T09:34:12.357Z,100981.94
2022-07-28T09:39:30.592Z,100983.31
2022-07-28T09:44:33.008Z,101003.88
2022-07-28T09:49:43.614Z,100993.09
2022-07-28T09:55:10.092Z,100999.09
2022-07-28T10:00:27.942Z,101008.94
2022-07-28T10:05:41.587Z,101005.84
2022-07-28T10:10:59.329Z,100986.31
2022-07-28T10:16:11.725Z,100990.38
2022-07-28T10:21:17.127Z,100986.66
2022-07-28T10:26:22.991Z,100992.88
2022-07-28T10:31:39.334Z,100993.69
2022-07-28T10:36:42.943Z,101001.75
2022-07-28T10:41:45.916Z,100993.50
2022-07-28T10:46:48.701Z,101004.31
2022-07-28T10:52:04.971Z,100992.16
2022-07-28T10:57:12.926Z,100993.69
2022-07-28T11:02:57.810Z,101003.22
2022-07-28T11:08:04.671Z,100997.44
2022-07-28T11:13:07.478Z,101001.34
2022-07-28T11:18:16.924Z,100985.53
2022-07-28T11:23:55.900Z,100995.25
2022-07-28T11:29:04.577Z,101004.50
2022-07-28T11:34:09.309Z,100996.88
2022-07-28T11:39:24.718Z,101001.50
2022-07-28T11:44:32.130Z,100998.38
2022-07-28T11:49:34.954Z,101008.09
2022-07-28T11:54:38.999Z,101004.50
2022-07-28T11:59:43.928Z,101004.06
2022-07-28T12:05:01.046Z,100999.84
2022-07-28T12:10:44.449Z,100996.50
2022-07-28T12:15:51.928Z,100998.72
2022-07-28T12:20:55.623Z,100989.72
2022-07-28T12:25:58.562Z,100988.06
2022-07-28T12:31:13.636Z,100976.97
2022-07-28T12:36:19.538Z,100980.47
2022-07-28T12:41:25.892Z,100982.72
2022-07-28T12:46:30.822Z,100977.53
2022-07-28T12:51:42.058Z,100982.13
2022-07-28T12:56:49.486Z,100980.50
2022-07-28T13:01:59.351Z,100981.69
2022-07-28T13:07:02.011Z,100980.22
2022-07-28T13:12:15.560Z,100978.13
2022-07-28T13:17:22.162Z,100984.25
2022-07-28T13:22:34.582Z,100982.22
2022-07-28T13:27:38.261Z,100989.28
2022-07-28T13:32:43.570Z,100994.84
2022-07-28T13:37:46.182Z,100989.66
2022-07-28T13:42:53.187Z,100983.19
2022-07-28T13:48:02.917Z,100987.03
2022-07-28T13:53:06.037Z,100987.78
2022-07-28T13:58:09.177Z,100985.19
2022-07-28T14:03:13.051Z,100981.50
2022-07-28T14:08:19.638Z,100983.34
2022-07-28T14:13:22.533Z,100980.25
2022-07-28T14:18:31.142Z,100967.22
2022-07-28T14:23:34.038Z,100955.19
2022-07-28T14:28:37.207Z,100970.00
2022-07-28T14:33:45.579Z,100973.03
2022-07-28T14:38:53.646Z,100964.84
2022-07-28T14:43:58.404Z,100970.50
2022-07-28T14:49:01.276Z,100959.25
2022-07-28T14:54:04.618Z,100967.56
2022-07-28T14:59:07.324Z,100971.16
2022-07-28T15:04:12.770Z,100964.00
2022-07-28T15:09:15.753Z,100970.78
2022-07-28T15:14:20.974Z,100969.22
2022-07-28T15:19:25.387Z,100961.41
2022-07-28T15:24:30.815Z,100972.59
2022-07-28T15:29:35.689Z,100970.81
2022-07-28T15:34:38.395Z,100971.50
2022-07-28T15:39:45.043Z,100964.59
2022-07-28T15:44:49.743Z,100960.25
2022-07-28T15:49:52.284Z,100973.19
2022-07-28T15:54:56.692Z,100963.13
2022-07-28T15:59:59.751Z,100970.09
2022-07-28T16:05:02.440Z,100975.41
2022-07-28T16:10:05.316Z,100974.50
2022-07-28T16:15:08.544Z,100981.44
2022-07-28T16:20:11.950Z,100985.69
2022-07-28T16:25:19.983Z,100985.78
2022-07-28T16:30:22.669Z,100992.94
2022-07-28T16:35:25.676Z,100995.13
2022-07-28T16:40:30.420Z,100995.94
2022-07-28T16:45:35.865Z,100983.22
2022-07-28T16:50:40.030Z,100987.72
2022-07-28T16:55:43.228Z,101000.78
2022-07-28T17:00:45.908Z,100997.00
2022-07-28T17:05:49.058Z,101013.50
2022-07-28T17:10:51.483Z,101011.06
2022-07-28T17:15:55.122Z,101012.41
2022-07-28T17:21:00.406Z,101028.25
2022-07-28T17:31:33.531Z,101038.41
2022-07-28T17:36:38.455Z,101040.34
2022-07-28T17:41:44.136Z,101046.13
2022-07-28T17:46:47.949Z,101054.78
2022-07-28T17:51:50.756Z,101060.56
2022-07-28T17:56:54.337Z,101063.16
2022-07-28T18:01:58.446Z,101064.41
2022-07-28T18:07:01.048Z,101069.66
2022-07-28T18:12:05.478Z,101063.97
2022-07-28T18:17:08.010Z,101083.38
2022-07-28T18:22:10.397Z,101083.22
2022-07-28T18:27:13.623Z,101077.66
2022-07-28T18:32:20.078Z,101067.66
2022-07-28T18:37:22.816Z,101091.84
2022-07-28T18:42:25.520Z,101100.94
2022-07-28T18:47:29.474Z,101105.28
2022-07-28T18:52:33.946Z,101102.44
2022-07-28T18:57:36.771Z,101104.38
2022-07-28T19:02:39.584Z,101109.28
2022-07-28T19:07:42.933Z,101113.47
2022-07-28T19:12:46.796Z,101121.09
2022-07-28T19:18:10.431Z,101130.03
2022-07-28T19:23:12.913Z,101132.72
2022-07-28T19:28:16.720Z,101126.09
2022-07-28T19:33:21.501Z,101125.13
2022-07-28T19:38:25.381Z,101128.69
2022-07-28T19:43:28.350Z,101131.31
2022-07-28T19:48:31.268Z,101132.97
2022-07-28T19:53:35.851Z,101139.91
2022-07-28T19:58:40.680Z,101142.47
2022-07-28T20:04:01.249Z,101142.56
2022-07-28T20:09:06.894Z,101137.88
2022-07-28T20:14:09.989Z,101143.31
2022-07-28T20:19:12.989Z,101144.50
2022-07-28T20:24:16.043Z,101145.03
2022-07-28T20:29:18.981Z,101146.44
2022-07-28T20:34:23.272Z,101151.38
2022-07-28T20:39:44.375Z,101149.09
2022-07-28T20:44:47.499Z,101147.72
2022-07-28T20:49:50.267Z,101150.63
2022-07-28T20:54:54.794Z,101162.31
2022-07-28T20:59:57.775Z,101164.38
2022-07-28T21:05:01.021Z,101176.00
2022-07-28T21:10:05.368Z,101173.31
2022-07-28T21:15:10.770Z,101179.94
2022-07-28T21:20:14.799Z,101182.94
2022-07-28T21:25:18.166Z,101187.06
2022-07-28T21:30:27.644Z,101197.66
2022-07-28T21:35:33.479Z,101200.97
2022-07-28T21:40:38.984Z,101213.13
2022-07-28T21:45:42.442Z,101211.94
2022-07-28T21:50:45.269Z,101221.75
2022-07-28T21:55:48.615Z,101219.72
2022-07-28T22:00:51.254Z,101231.13
2022-07-28T22:05:54.020Z,101233.88
2022-07-28T22:11:00.476Z,101229.75
2022-07-28T22:16:04.255Z,101241.13
2022-07-28T22:21:07.043Z,101238.03
2022-07-28T22:26:09.665Z,101243.88
2022-07-28T22:31:12.268Z,101240.00
2022-07-28T22:36:15.326Z,101248.78
2022-07-28T22:41:17.844Z,101249.97
2022-07-28T22:46:21.595Z,101256.28
2022-07-28T22:51:24.233Z,101263.78
2022-07-28T22:57:05.107Z,101261.91
2022-07-28T23:02:26.100Z,101265.47
2022-07-28T23:07:51.054Z,101280.81
2022-07-28T23:12:51.458Z,101278.84
2022-07-28T23:17:54.270Z,101278.38
2022-07-28T23:22:56.669Z,101273.44
2022-07-28T23:27:59.338Z,101276.75
2022-07-28T23:33:02.480Z,101276.81
2022-07-28T23:38:05.356Z,101282.03
2022-07-28T23:43:07.863Z,101273.22
2022-07-28T23:48:10.616Z,101276.22
2022-07-28T23:53:13.557Z,101272.47
2022-07-28T23:58:16.092Z,101274.41
